Time;durP1;ratioP1;P1;durP2;ratioP2;P2;SDS_P1;SDS_P2;PMS_P1;PMS_P2;Temp;Humidity;BMP_temperature;BMP_pressure;BME280_temperature;BME280_humidity;BME280_pressure;Samples;Min_cycle;Max_cycle;Signal;HPM_P1;HPM_P2
2023/01/21 00:01:36;;;;;;;50.78;23.02;;;;;;;;;;5049110;28;20041;-63
2023/01/21 00:04:02;;;;;;;55.58;28.45;;;;;;;;;;5049247;28;20052;-63
2023/01/21 00:06:28;;;;;;;57.42;25.38;;;;;;;;;;5033885;28;20069;-63
2023/01/21 00:08:57;;;;;;;49.10;25.15;;;-0.90;99.90;;;;;;5052039;28;20041;-63
2023/01/21 00:11:26;;;;;;;53.95;25.20;;;;;;;;;;5052908;28;20041;-63
2023/01/21 00:13:54;;;;;;;55.78;27.10;;;-0.90;99.90;;;;;;5052487;28;20461;-63
2023/01/21 00:16:26;;;;;;;52.53;26.92;;;-0.20;99.90;;;;;;5054046;28;20367;-63
2023/01/21 00:18:55;;;;;;;59.28;26.58;;;;;;;;;;5053640;28;20525;-63
2023/01/21 00:21:23;;;;;;;51.13;26.88;;;-1.00;99.90;;;;;;5053274;28;20080;-63
2023/01/21 00:23:49;;;;;;;51.40;27.73;;;-1.00;99.90;;;;;;5053604;28;20039;-63
2023/01/21 00:26:18;;;;;;;55.67;26.98;;;;;;;;;;5051100;28;20410;-63
2023/01/21 00:28:45;;;;;;;56.42;25.95;;;;;;;;;;5053918;28;20103;-64
2023/01/21 00:31:12;;;;;;;58.60;27.20;;;;;;;;;;5055852;28;20499;-64
2023/01/21 00:33:38;;;;;;;52.58;26.38;;;;;;;;;;5059945;28;20033;-63
2023/01/21 00:36:09;;;;;;;62.05;27.50;;;;;;;;;;5033382;28;20044;-63
2023/01/21 00:38:35;;;;;;;56.50;26.95;;;;;;;;;;5052464;28;20166;-63
2023/01/21 00:41:04;;;;;;;53.47;25.23;;;;;;;;;;5051259;28;20497;-63
2023/01/21 00:43:31;;;;;;;51.92;26.23;;;;;;;;;;5059022;28;20409;-63
2023/01/21 00:45:57;;;;;;;53.13;26.63;;;;;;;;;;5049080;28;20470;-63
2023/01/21 00:48:30;;;;;;;53.20;26.95;;;;;;;;;;5054335;28;20452;-63
2023/01/21 00:51:02;;;;;;;54.03;27.23;;;;;;;;;;5039200;28;20111;-63
2023/01/21 00:53:30;;;;;;;58.65;26.45;;;;;;;;;;5051609;28;20037;-64
2023/01/21 00:56:04;;;;;;;48.25;25.15;;;;;;;;;;5048801;28;20433;-63
2023/01/21 00:58:30;;;;;;;55.85;27.23;;;;;;;;;;5035178;28;20041;-64
2023/01/21 01:01:03;;;;;;;60.38;28.58;;;;;;;;;;5055640;28;20043;-63
2023/01/21 01:03:33;;;;;;;56.42;26.15;;;;;;;;;;5049909;28;20032;-63
2023/01/21 01:06:20;;;;;;;57.92;27.02;;;-1.10;99.90;;;;;;5037415;28;20036;-64
2023/01/21 01:08:48;;;;;;;54.80;27.42;;;;;;;;;;5047617;28;20486;-64
2023/01/21 01:11:14;;;;;;;64.15;29.75;;;;;;;;;;5054201;28;20045;-63
2023/01/21 01:13:40;;;;;;;68.30;29.48;;;-1.00;99.90;;;;;;5059330;28;20032;-63
2023/01/21 01:16:06;;;;;;;56.58;29.13;;;-0.90;99.90;;;;;;5057656;28;20132;-63
2023/01/21 01:18:36;;;;;;;58.85;28.05;;;-0.80;99.90;;;;;;5039664;28;20048;-62
2023/01/21 01:21:03;;;;;;;53.65;26.35;;;-1.10;99.90;;;;;;5056535;28;20037;-63
2023/01/21 01:23:30;;;;;;;58.58;26.38;;;-1.20;99.90;;;;;;5058862;28;20552;-64
2023/01/21 01:25:59;;;;;;;55.97;28.30;;;;;;;;;;5044894;28;20038;-63
2023/01/21 01:28:25;;;;;;;59.00;27.92;;;-1.20;99.90;;;;;;5050024;28;20080;-63
2023/01/21 01:30:55;;;;;;;54.20;27.20;;;;;;;;;;5038813;28;20037;-64
2023/01/21 01:33:24;;;;;;;64.03;28.85;;;;;;;;;;5056295;28;20441;-64
2023/01/21 01:35:56;;;;;;;58.35;27.80;;;;;;;;;;5037483;28;20234;-63
2023/01/21 01:38:22;;;;;;;59.97;26.73;;;;;;;;;;5046823;28;20045;-64
2023/01/21 01:40:49;;;;;;;59.67;29.42;;;;;;;;;;5054293;28;20490;-63
2023/01/21 01:43:20;;;;;;;58.13;28.23;;;-1.10;99.90;;;;;;5039055;28;20100;-64
2023/01/21 01:45:50;;;;;;;51.75;24.45;;;-0.90;99.90;;;;;;5035921;28;20071;-64
2023/01/21 01:48:27;;;;;;;61.70;27.63;;;;;;;;;;5049936;28;20044;-64
2023/01/21 01:50:55;;;;;;;50.88;27.17;;;;;;;;;;5046404;28;20094;-64
2023/01/21 01:53:22;;;;;;;61.28;28.02;;;;;;;;;;5058783;28;20032;-64
2023/01/21 01:55:51;;;;;;;55.70;27.83;;;;;;;;;;5044299;28;20049;-64
2023/01/21 01:58:19;;;;;;;56.25;27.35;;;-0.80;99.90;;;;;;5060756;28;20046;-64
2023/01/21 02:00:45;;;;;;;59.45;27.95;;;;;;;;;;5051689;28;20266;-64
2023/01/21 02:06:02;;;;;;;63.15;28.25;;;;;;;;;;5058796;28;20072;-63
2023/01/21 02:08:37;;;;;;;64.40;28.67;;;;;;;;;;5054120;28;20064;-63
2023/01/21 02:11:13;;;;;;;57.40;27.38;;;-1.10;99.90;;;;;;5059599;28;20036;-64
2023/01/21 02:13:42;;;;;;;63.53;28.42;;;-0.40;99.90;;;;;;5056759;28;20079;-64
2023/01/21 02:16:40;;;;;;;56.30;25.92;;;-0.80;99.90;;;;;;5024817;28;20036;-63
2023/01/21 02:19:12;;;;;;;61.63;28.27;;;;;;;;;;5058509;28;20036;-64
2023/01/21 02:21:59;;;;;;;55.65;26.83;;;;;;;;;;5049160;28;20068;-63
2023/01/21 02:25:00;;;;;;;56.08;28.63;;;;;;;;;;5056063;28;20098;-64
2023/01/21 02:27:39;;;;;;;67.07;27.95;;;-1.40;99.90;;;;;;5036001;28;20040;-64
2023/01/21 02:30:10;;;;;;;53.58;27.70;;;;;;;;;;5055248;28;20068;-64
2023/01/21 02:32:55;;;;;;;64.53;29.23;;;;;;;;;;5054218;28;20395;-63
2023/01/21 02:35:28;;;;;;;64.57;29.83;;;-1.10;99.90;;;;;;5058843;28;20045;-64
2023/01/21 02:38:01;;;;;;;57.10;27.98;;;;;;;;;;5057727;28;20049;-64
2023/01/21 02:40:37;;;;;;;62.30;29.00;;;;;;;;;;5057056;28;20048;-63
2023/01/21 02:43:11;;;;;;;70.78;31.38;;;;;;;;;;5057509;28;20174;-64
2023/01/21 02:45:41;;;;;;;62.63;29.00;;;;;;;;;;5055063;28;20075;-63
2023/01/21 02:48:13;;;;;;;62.47;28.73;;;;;;;;;;5057091;28;20094;-64
2023/01/21 02:50:44;;;;;;;66.20;28.70;;;;;;;;;;5061830;28;20036;-65
2023/01/21 02:53:19;;;;;;;56.75;27.77;;;-1.50;99.90;;;;;;5053432;28;20044;-64
2023/01/21 02:55:45;;;;;;;61.88;28.13;;;;;;;;;;5052642;28;20037;-64
2023/01/21 02:58:19;;;;;;;61.90;29.27;;;;;;;;;;5053977;28;20060;-63
2023/01/21 03:00:55;;;;;;;72.95;31.00;;;;;;;;;;5053360;28;20048;-64
2023/01/21 03:03:41;;;;;;;62.47;27.00;;;;;;;;;;5053688;28;20410;-64
2023/01/21 03:06:34;;;;;;;56.65;27.00;;;-1.10;99.90;;;;;;5046937;28;20033;-64
2023/01/21 03:09:15;;;;;;;60.60;28.65;;;;;;;;;;5046432;28;20490;-64
2023/01/21 03:11:48;;;;;;;58.83;29.15;;;;;;;;;;5056196;28;20045;-64
2023/01/21 03:17:56;;;;;;;64.97;31.02;;;;;;;;;;5047816;28;20052;-63
2023/01/21 03:20:38;;;;;;;63.63;28.08;;;-1.20;99.90;;;;;;5050448;28;20044;-64
2023/01/21 03:23:08;;;;;;;71.20;30.98;;;;;;;;;;5039370;28;20048;-64
2023/01/21 03:25:36;;;;;;;60.63;27.92;;;;;;;;;;5058887;28;20091;-64
2023/01/21 03:28:07;;;;;;;70.97;31.50;;;;;;;;;;5043390;28;20041;-64
2023/01/21 03:30:33;;;;;;;60.55;29.27;;;;;;;;;;5027538;28;20084;-64
2023/01/21 03:33:01;;;;;;;71.20;30.15;;;-0.90;99.90;;;;;;5033761;28;20037;-64
2023/01/21 03:35:41;;;;;;;62.65;31.27;;;-1.30;99.90;;;;;;5050768;28;20133;-64
2023/01/21 03:38:14;;;;;;;69.22;30.42;;;;;;;;;;5045050;28;20033;-64
2023/01/21 03:41:04;;;;;;;52.55;26.25;;;-1.10;99.90;;;;;;5043669;28;20073;-64
2023/01/21 03:43:31;;;;;;;64.60;28.95;;;;;;;;;;5051321;28;20043;-64
2023/01/21 03:46:34;;;;;;;63.92;28.77;;;-0.90;99.90;;;;;;5050899;28;20079;-63
2023/01/21 03:49:04;;;;;;;58.38;26.20;;;;;;;;;;5047402;28;20048;-64
2023/01/21 03:51:35;;;;;;;58.58;27.02;;;;;;;;;;5046971;28;20420;-64
2023/01/21 03:54:01;;;;;;;53.13;25.85;;;;;;;;;;5051243;28;20186;-63
2023/01/21 03:56:30;;;;;;;58.97;26.58;;;;;;;;;;5033072;28;20041;-63
2023/01/21 03:58:59;;;;;;;57.40;28.08;;;;;;;;;;5048451;28;20037;-64
2023/01/21 04:01:25;;;;;;;53.25;26.05;;;;;;;;;;5043448;28;20059;-64
2023/01/21 04:03:54;;;;;;;60.40;27.48;;;;;;;;;;5050210;28;20495;-64
2023/01/21 04:06:29;;;;;;;56.03;28.95;;;;;;;;;;5050393;28;20086;-62
2023/01/21 04:08:55;;;;;;;63.47;29.20;;;;;;;;;;5049997;28;20071;-64
2023/01/21 04:11:22;;;;;;;56.67;26.17;;;;;;;;;;5045317;28;20063;-63
2023/01/21 04:13:57;;;;;;;53.00;27.23;;;;;;;;;;5029444;28;20110;-64
2023/01/21 04:17:05;;;;;;;58.47;27.55;;;;;;;;;;5058726;28;20059;-62
2023/01/21 04:19:20;;;;;;;59.30;27.27;;;;;;;;;;5051791;28;20462;-64
2023/01/21 04:21:58;;;;;;;;;;;-1.20;99.90;;;;;;5048813;28;20115;-64
2023/01/21 04:24:24;;;;;;;60.97;28.92;;;-0.90;99.90;;;;;;5052919;28;19924;-64
2023/01/21 04:26:52;;;;;;;53.70;27.17;;;;;;;;;;5056139;28;20562;-64
2023/01/21 04:29:18;;;;;;;60.75;26.98;;;-1.00;99.90;;;;;;5056039;28;20124;-64
2023/01/21 04:31:44;;;;;;;56.45;25.98;;;;;;;;;;5042777;28;20120;-63
2023/01/21 04:34:19;;;;;;;57.25;27.48;;;;;;;;;;5051049;28;20124;-64
2023/01/21 04:36:45;;;;;;;60.00;27.17;;;-0.90;99.90;;;;;;5049840;28;20044;-65
2023/01/21 04:39:11;;;;;;;59.35;28.85;;;-1.00;99.90;;;;;;5050030;28;20414;-65
2023/01/21 04:41:40;;;;;;;52.78;27.00;;;;;;;;;;5032897;28;20056;-64
2023/01/21 04:44:08;;;;;;;56.45;27.08;;;-1.10;99.90;;;;;;5050680;28;20040;-65
2023/01/21 04:46:37;;;;;;;60.30;27.80;;;;;;;;;;5057660;28;20521;-65
2023/01/21 04:49:03;;;;;;;61.08;26.88;;;;;;;;;;5025119;28;20075;-64
2023/01/21 04:51:29;;;;;;;58.42;27.25;;;;;;;;;;5049919;28;20056;-65
2023/01/21 04:53:55;;;;;;;62.08;29.02;;;;;;;;;;5049150;28;20049;-64
2023/01/21 04:56:22;;;;;;;63.90;30.75;;;;;;;;;;5043850;28;20365;-65
2023/01/21 04:58:51;;;;;;;67.03;28.65;;;;;;;;;;5048977;28;20109;-64
2023/01/21 05:01:19;;;;;;;65.45;29.25;;;;;;;;;;5047080;28;20521;-64
2023/01/21 05:03:46;;;;;;;62.38;27.38;;;;;;;;;;5040214;28;20034;-64
2023/01/21 05:06:12;;;;;;;61.97;28.88;;;;;;;;;;5043683;28;20490;-64
2023/01/21 05:08:40;;;;;;;61.10;27.25;;;-1.10;99.90;;;;;;5043978;28;20663;-64
2023/01/21 05:11:25;;;;;;;51.92;25.65;;;;;;;;;;5043176;28;20035;-64
2023/01/21 05:13:51;;;;;;;55.20;23.45;;;;;;;;;;5049438;28;20657;-65
2023/01/21 05:16:20;;;;;;;55.75;26.98;;;;;;;;;;5047858;28;20065;-64
2023/01/21 05:18:47;;;;;;;50.60;25.85;;;;;;;;;;5043401;28;20049;-64
2023/01/21 05:21:15;;;;;;;51.13;24.65;;;;;;;;;;5048327;28;20076;-63
2023/01/21 05:23:44;;;;;;;58.80;28.23;;;;;;;;;;5031296;28;20576;-63
2023/01/21 05:26:10;;;;;;;55.38;27.90;;;;;;;;;;5049674;28;20048;-64
2023/01/21 05:28:36;;;;;;;58.67;28.67;;;-0.50;99.90;;;;;;5049247;28;20037;-64
2023/01/21 05:31:05;;;;;;;55.80;28.08;;;0.20;99.90;;;;;;5043177;28;20037;-64
2023/01/21 05:33:32;;;;;;;56.95;26.75;;;;;;;;;;5031509;28;20045;-64
2023/01/21 05:36:05;;;;;;;63.55;29.92;;;0.20;99.90;;;;;;5055644;28;20045;-64
2023/01/21 05:38:31;;;;;;;60.58;28.55;;;-0.40;99.90;;;;;;5054172;28;20052;-65
2023/01/21 05:40:58;;;;;;;49.05;26.10;;;;;;;;;;5052536;28;20112;-65
2023/01/21 05:43:24;;;;;;;57.75;28.65;;;;;;;;;;5061261;28;20170;-65
2023/01/21 05:45:50;;;;;;;57.50;27.48;;;;;;;;;;5050395;28;20033;-65
2023/01/21 05:48:16;;;;;;;58.60;28.55;;;-0.40;99.70;;;;;;5053138;28;20044;-64
2023/01/21 05:50:42;;;;;;;67.75;28.73;;;;;;;;;;5050046;28;20112;-65
2023/01/21 05:53:08;;;;;;;58.75;27.45;;;;;;;;;;5034592;28;20104;-64
2023/01/21 05:55:38;;;;;;;59.83;27.75;;;;;;;;;;5053533;28;20041;-65
2023/01/21 05:58:07;;;;;;;62.15;29.38;;;;;;;;;;5049950;28;20098;-65
2023/01/21 06:00:33;;;;;;;59.42;28.67;;;-0.20;82.00;;;;;;5049765;28;20102;-65
2023/01/21 06:03:00;;;;;;;59.88;28.77;;;;;;;;;;5046768;28;20441;-65
2023/01/21 06:05:26;;;;;;;57.08;28.30;;;;;;;;;;5035665;28;20646;-65
2023/01/21 06:07:52;;;;;;;51.97;25.90;;;;;;;;;;5049415;28;20115;-65
2023/01/21 06:10:19;;;;;;;52.67;26.13;;;;;;;;;;5067957;28;20699;-65
2023/01/21 06:12:48;;;;;;;62.05;31.70;;;0.10;49.20;;;;;;5058528;28;20056;-65
2023/01/21 06:15:14;;;;;;;58.92;28.35;;;;;;;;;;5051266;28;20085;-64
2023/01/21 06:17:39;;;;;;;59.10;27.75;;;0.10;54.70;;;;;;5047831;28;20099;-64
2023/01/21 06:20:09;;;;;;;58.60;30.05;;;;;;;;;;5052565;28;20053;-67
2023/01/21 06:22:36;;;;;;;64.45;30.30;;;;;;;;;;5052923;28;20037;-67
2023/01/21 06:25:02;;;;;;;61.55;28.52;;;;;;;;;;5059836;28;20035;-68
2023/01/21 06:27:31;;;;;;;59.22;29.02;;;;;;;;;;5055483;28;20491;-65
2023/01/21 06:29:57;;;;;;;63.03;31.58;;;;;;;;;;5050725;28;20047;-65
2023/01/21 06:32:23;;;;;;;58.13;29.63;;;;;;;;;;5022635;28;20110;-64
2023/01/21 06:34:49;;;;;;;61.40;29.13;;;;;;;;;;5031915;28;20048;-65
2023/01/21 06:37:15;;;;;;;63.75;28.80;;;;;;;;;;5034775;28;20380;-64
2023/01/21 06:39:41;;;;;;;61.50;28.55;;;;;;;;;;5041021;28;20103;-64
2023/01/21 06:42:07;;;;;;;67.95;33.17;;;-0.10;52.90;;;;;;5043723;28;20498;-64
2023/01/21 06:44:33;;;;;;;60.90;28.70;;;;;;;;;;5048536;28;20033;-64
2023/01/21 06:46:59;;;;;;;60.67;30.58;;;;;;;;;;5040566;28;20044;-64
2023/01/21 06:49:28;;;;;;;60.55;28.50;;;;;;;;;;5036997;28;20045;-64
2023/01/21 06:51:55;;;;;;;60.35;30.05;;;-0.20;64.40;;;;;;5040779;28;20473;-64
2023/01/21 06:54:20;;;;;;;56.60;28.48;;;-0.20;65.00;;;;;;5044968;28;20049;-64
2023/01/21 06:56:46;;;;;;;61.47;30.25;;;;;;;;;;5041393;28;20044;-64
2023/01/21 06:59:12;;;;;;;61.78;29.77;;;-0.20;45.60;;;;;;5027277;28;20052;-65
2023/01/21 07:01:38;;;;;;;64.47;31.30;;;;;;;;;;5041400;28;20038;-65
2023/01/21 07:04:04;;;;;;;63.00;29.10;;;;;;;;;;5051946;28;20110;-64
2023/01/21 07:06:31;;;;;;;59.58;28.20;;;;;;;;;;5041395;28;20120;-64
2023/01/21 07:08:57;;;;;;;60.30;27.67;;;;;;;;;;5021874;28;20045;-64
2023/01/21 07:11:25;;;;;;;64.55;31.20;;;0.00;62.30;;;;;;5035184;28;20037;-64
2023/01/21 07:13:51;;;;;;;64.53;31.92;;;;;;;;;;5017437;28;20045;-64
2023/01/21 07:16:17;;;;;;;72.97;30.40;;;;;;;;;;5040889;28;20060;-64
2023/01/21 07:18:43;;;;;;;72.30;33.03;;;;;;;;;;5031801;28;20041;-64
2023/01/21 07:21:09;;;;;;;66.85;31.92;;;;;;;;;;5034909;28;20267;-64
2023/01/21 07:23:36;;;;;;;57.05;28.33;;;;;;;;;;5031002;28;21430;-64
2023/01/21 07:26:05;;;;;;;70.40;32.03;;;0.10;93.30;;;;;;5032042;28;20029;-66
2023/01/21 07:28:31;;;;;;;63.58;30.30;;;;;;;;;;5034916;28;20033;-66
2023/01/21 07:31:01;;;;;;;65.20;30.17;;;;;;;;;;5038425;28;20042;-66
2023/01/21 07:33:30;;;;;;;64.20;30.08;;;;;;;;;;5034115;28;20045;-67
2023/01/21 07:35:56;;;;;;;69.25;30.02;;;;;;;;;;5040064;28;20456;-66
2023/01/21 07:38:22;;;;;;;71.93;32.08;;;;;;;;;;5024561;28;20045;-67
2023/01/21 07:40:51;;;;;;;75.55;32.85;;;;;;;;;;5035794;28;20041;-67
2023/01/21 07:43:20;;;;;;;66.85;31.77;;;;;;;;;;5039226;28;20314;-67
2023/01/21 07:45:49;;;;;;;66.82;31.98;;;;;;;;;;5037011;28;20064;-67
2023/01/21 07:48:15;;;;;;;70.38;34.17;;;;;;;;;;5040205;28;20487;-67
2023/01/21 07:50:47;;;;;;;62.72;31.75;;;-0.10;99.90;;;;;;5042495;28;20052;-67
2023/01/21 07:53:13;;;;;;;66.88;31.33;;;0.20;99.90;;;;;;5044178;28;20041;-67
2023/01/21 07:55:39;;;;;;;67.22;31.45;;;0.30;99.90;;;;;;5044766;28;20404;-67
2023/01/21 07:58:05;;;;;;;67.28;31.00;;;;;;;;;;5020667;28;20342;-67
2023/01/21 08:00:33;;;;;;;65.93;30.73;;;;;;;;;;5022046;28;20048;-67
2023/01/21 08:02:59;;;;;;;61.75;31.80;;;0.40;99.90;;;;;;5035698;28;20040;-67
2023/01/21 08:05:25;;;;;;;60.15;30.85;;;;;;;;;;5023079;28;20045;-67
2023/01/21 08:07:51;;;;;;;58.78;31.33;;;;;;;;;;5039240;28;20087;-67
2023/01/21 08:10:21;;;;;;;61.15;29.85;;;;;;;;;;5022536;28;20049;-67
2023/01/21 08:12:47;;;;;;;61.75;30.92;;;;;;;;;;5025120;28;20041;-67
2023/01/21 08:15:19;;;;;;;67.05;33.75;;;0.50;85.10;;;;;;5046686;28;20037;-67
2023/01/21 08:17:47;;;;;;;64.18;31.05;;;;;;;;;;5031908;28;20078;-67
2023/01/21 08:20:16;;;;;;;62.35;31.52;;;;;;;;;;5027159;28;20077;-67
2023/01/21 08:22:45;;;;;;;67.57;31.48;;;;;;;;;;5035299;28;20117;-67
2023/01/21 08:25:14;;;;;;;63.40;31.35;;;;;;;;;;5042499;28;20126;-67
2023/01/21 08:27:43;;;;;;;61.13;30.85;;;;;;;;;;5023640;28;20037;-67
2023/01/21 08:30:12;;;;;;;68.32;31.63;;;;;;;;;;5041350;28;20040;-67
2023/01/21 08:32:41;;;;;;;57.58;30.30;;;;;;;;;;5033253;28;20048;-67
2023/01/21 08:35:07;;;;;;;65.32;30.92;;;;;;;;;;5038486;28;20041;-67
2023/01/21 08:37:33;;;;;;;65.13;32.95;;;0.60;92.60;;;;;;5044796;28;20461;-67
2023/01/21 08:39:59;;;;;;;68.45;32.35;;;;;;;;;;5039419;28;20124;-67
2023/01/21 08:42:28;;;;;;;63.45;31.92;;;;;;;;;;5043600;28;20094;-67
2023/01/21 08:44:57;;;;;;;65.10;31.73;;;;;;;;;;5020894;28;20518;-67
2023/01/21 08:47:23;;;;;;;66.07;31.02;;;;;;;;;;5045455;28;20098;-67
2023/01/21 08:49:52;;;;;;;66.60;32.78;;;;;;;;;;5028656;28;20046;-67
2023/01/21 08:52:20;;;;;;;68.38;32.40;;;;;;;;;;5042970;28;20037;-67
2023/01/21 08:54:49;;;;;;;65.68;31.52;;;;;;;;;;5036884;28;20053;-67
2023/01/21 08:57:18;;;;;;;74.05;33.65;;;;;;;;;;5036070;28;20414;-67
2023/01/21 08:59:52;;;;;;;69.50;31.95;;;;;;;;;;5041343;28;20044;-67
2023/01/21 09:02:21;;;;;;;70.15;31.30;;;0.30;99.90;;;;;;5037128;28;20056;-67
2023/01/21 09:04:49;;;;;;;67.43;31.63;;;;;;;;;;5036965;28;20033;-67
2023/01/21 09:07:16;;;;;;;66.22;30.67;;;;;;;;;;5042045;28;20045;-67
2023/01/21 09:09:42;;;;;;;70.00;31.08;;;;;;;;;;5045082;28;20040;-67
2023/01/21 09:12:20;;;;;;;68.85;33.30;;;;;;;;;;5038290;28;20076;-67
2023/01/21 09:14:49;;;;;;;71.15;32.65;;;;;;;;;;5028001;28;20048;-67
2023/01/21 09:17:15;;;;;;;76.60;36.63;;;;;;;;;;5021760;28;20080;-67
2023/01/21 09:19:44;;;;;;;76.75;33.47;;;;;;;;;;5020890;28;20037;-67
2023/01/21 09:22:10;;;;;;;67.90;32.63;;;;;;;;;;5044232;28;20044;-67
2023/01/21 09:24:39;;;;;;;71.65;33.88;;;;;;;;;;5039580;28;20052;-67
2023/01/21 09:27:12;;;;;;;69.57;34.03;;;0.50;99.90;;;;;;5048680;28;20402;-67
2023/01/21 09:29:41;;;;;;;68.13;33.53;;;;;;;;;;5049606;28;20052;-67
2023/01/21 09:32:18;;;;;;;72.85;34.90;;;0.40;99.90;;;;;;5049434;28;20037;-67
2023/01/21 09:34:44;;;;;;;71.40;35.13;;;;;;;;;;5027437;28;20045;-67
2023/01/21 09:37:10;;;;;;;68.78;33.55;;;;;;;;;;5051615;28;20057;-67
2023/01/21 09:39:39;;;;;;;63.42;33.97;;;1.20;99.90;;;;;;5053188;28;20041;-67
2023/01/21 09:42:14;;;;;;;70.10;34.22;;;0.70;99.90;;;;;;5035408;28;20091;-67
2023/01/21 09:44:43;;;;;;;70.43;33.08;;;;;;;;;;5040627;28;20048;-67
2023/01/21 09:47:28;;;;;;;68.28;32.88;;;1.20;99.90;;;;;;5051556;28;20040;-67
2023/01/21 09:50:05;;;;;;;67.15;32.38;;;1.10;99.90;;;;;;5054378;28;20048;-67
2023/01/21 09:52:37;;;;;;;72.75;34.40;;;;;;;;;;5061168;28;20087;-67
2023/01/21 09:55:04;;;;;;;62.83;31.67;;;;;;;;;;5033655;28;20044;-67
2023/01/21 09:57:37;;;;;;;65.72;31.35;;;;;;;;;;5034678;28;20094;-67
2023/01/21 10:00:29;;;;;;;61.83;31.83;;;;;;;;;;5053479;28;20037;-67
2023/01/21 10:03:11;;;;;;;56.97;31.02;;;;;;;;;;5049917;28;20049;-67
2023/01/21 10:06:12;;;;;;;51.33;24.17;;;;;;;;;;5053320;28;20103;-67
2023/01/21 10:08:55;;;;;;;57.40;28.30;;;;;;;;;;5013097;28;20045;-66
2023/01/21 10:11:34;;;;;;;61.38;30.85;;;;;;;;;;5053310;28;20044;-67
2023/01/21 10:14:10;;;;;;;54.33;30.27;;;1.70;99.90;;;;;;5051835;28;20040;-66
2023/01/21 10:17:01;;;;;;;58.40;31.13;;;1.60;99.90;;;;;;5053079;28;20044;-66
2023/01/21 10:19:37;;;;;;;59.33;29.42;;;;;;;;;;5049378;28;20924;-66
2023/01/21 10:22:08;;;;;;;53.75;27.75;;;;;;;;;;5047362;28;20033;-66
2023/01/21 10:24:45;;;;;;;53.55;28.13;;;2.20;99.90;;;;;;5052824;28;20514;-66
2023/01/21 10:27:15;;;;;;;49.15;26.50;;;;;;;;;;5052254;28;20399;-66
2023/01/21 10:29:48;;;;;;;52.38;28.13;;;;;;;;;;5046851;28;20058;-66
2023/01/21 10:32:18;;;;;;;48.63;25.70;;;;;;;;;;5036204;28;20053;-66
2023/01/21 10:34:50;;;;;;;51.10;26.95;;;;;;;;;;5031913;28;20037;-66
2023/01/21 10:37:23;;;;;;;45.92;25.33;;;;;;;;;;5052156;28;20087;-66
2023/01/21 10:40:03;;;;;;;44.65;23.85;;;3.10;99.90;;;;;;5046485;28;20119;-66
2023/01/21 10:42:54;;;;;;;42.83;21.92;;;3.70;99.90;;;;;;5034692;28;20045;-66
2023/01/21 10:45:20;;;;;;;37.08;21.80;;;;;;;;;;5034513;28;20411;-66
2023/01/21 10:47:56;;;;;;;33.75;19.70;;;;;;;;;;5051114;28;20095;-66
2023/01/21 10:50:41;;;;;;;36.78;19.75;;;2.80;99.90;;;;;;5045652;28;20090;-66
2023/01/21 10:53:21;;;;;;;37.28;19.77;;;2.90;99.90;;;;;;5048949;28;20045;-66
2023/01/21 10:56:11;;;;;;;40.78;21.65;;;;;;;;;;5047062;28;20134;-66
2023/01/21 10:58:47;;;;;;;32.63;18.90;;;;;;;;;;5032371;28;20095;-66
2023/01/21 11:01:22;;;;;;;36.22;20.15;;;;;;;;;;5052226;28;20064;-66
2023/01/21 11:03:58;;;;;;;33.40;18.35;;;;;;;;;;5043817;28;20033;-66
2023/01/21 11:06:27;;;;;;;34.65;18.85;;;2.80;99.90;;;;;;5046890;28;20132;-66
2023/01/21 11:08:56;;;;;;;29.75;17.20;;;;;;;;;;5025712;28;20541;-66
2023/01/21 11:11:32;;;;;;;28.13;14.77;;;;;;;;;;5023228;28;20053;-66
2023/01/21 11:13:59;;;;;;;26.95;14.88;;;;;;;;;;5039736;28;20045;-66
2023/01/21 11:16:42;;;;;;;26.42;15.57;;;;;;;;;;5027796;28;20057;-66
2023/01/21 11:19:15;;;;;;;24.58;14.63;;;;;;;;;;5037422;28;20044;-66
2023/01/21 11:21:56;;;;;;;25.40;13.77;;;;;;;;;;5035692;28;20037;-66
2023/01/21 11:24:24;;;;;;;22.83;13.07;;;;;;;;;;5032059;28;20033;-66
2023/01/21 11:26:58;;;;;;;22.52;12.90;;;2.80;93.20;;;;;;5037670;28;20044;-66
2023/01/21 11:29:25;;;;;;;21.25;11.63;;;2.60;98.80;;;;;;5038978;28;20044;-66
2023/01/21 11:32:21;;;;;;;18.13;10.20;;;;;;;;;;5043434;28;20037;-66
2023/01/21 11:37:26;;;;;;;15.57;9.43;;;;;;;;;;5042754;28;20041;-67
2023/01/21 11:39:56;;;;;;;15.45;9.20;;;;;;;;;;5033269;28;20041;-67
2023/01/21 11:42:23;;;;;;;19.92;9.32;;;;;;;;;;5052866;28;20041;-67
2023/01/21 11:44:52;;;;;;;15.90;9.07;;;;;;;;;;5051302;28;20035;-67
2023/01/21 11:47:28;;;;;;;16.05;9.02;;;;;;;;;;5027955;28;20073;-67
2023/01/21 11:49:54;;;;;;;16.27;9.02;;;;;;;;;;5046914;28;20559;-67
2023/01/21 11:52:20;;;;;;;16.50;9.20;;;;;;;;;;5053654;28;20041;-68
2023/01/21 11:57:23;;;;;;;15.05;8.88;;;;;;;;;;5048471;28;20049;-83
2023/01/21 11:59:52;;;;;;;17.90;9.93;;;;;;;;;;5042404;28;20150;-82
2023/01/21 12:02:18;;;;;;;18.13;10.68;;;;;;;;;;5000195;28;20038;-82
2023/01/21 12:05:10;;;;;;;14.93;8.55;;;;;;;;;;5027331;28;20029;-79
2023/01/21 12:07:38;;;;;;;14.85;8.52;;;;;;;;;;4990519;28;20088;-78
2023/01/21 12:10:07;;;;;;;13.70;8.75;;;;;;;;;;5016278;28;20125;-79
2023/01/21 12:12:43;;;;;;;16.15;9.25;;;;;;;;;;4998671;28;20490;-79
2023/01/21 12:15:21;;;;;;;14.02;9.02;;;;;;;;;;5001135;28;20044;-79
2023/01/21 12:18:30;;;;;;;16.77;9.98;;;4.50;1.00;;;;;;4999323;28;20099;-80
2023/01/21 12:21:15;;;;;;;16.95;10.30;;;5.00;1.00;;;;;;5011920;28;20108;-80
2023/01/21 12:23:53;;;;;;;18.63;10.57;;;;;;;;;;5017998;28;20077;-79
2023/01/21 12:26:29;;;;;;;17.60;9.80;;;;;;;;;;4993896;28;20431;-79
2023/01/21 12:29:22;;;;;;;14.30;9.38;;;6.00;1.00;;;;;;5009148;28;20527;-79
2023/01/21 12:31:54;;;;;;;18.02;9.98;;;;;;;;;;4996979;28;20395;-79
2023/01/21 12:34:42;;;;;;;15.40;9.23;;;;;;;;;;5012310;28;20077;-79
2023/01/21 12:37:18;;;;;;;14.95;8.32;;;;;;;;;;4999111;28;20041;-79
2023/01/21 12:39:44;;;;;;;13.82;8.63;;;;;;;;;;5012108;28;20042;-79
2023/01/21 12:42:18;;;;;;;15.05;8.73;;;7.00;99.90;;;;;;4982547;28;20169;-79
2023/01/21 12:44:51;;;;;;;14.75;9.38;;;;;;;;;;5007702;28;20441;-79
2023/01/21 12:47:20;;;;;;;13.60;8.45;;;;;;;;;;5011577;28;20044;-78
2023/01/21 12:49:49;;;;;;;16.33;8.52;;;;;;;;;;4989323;28;20126;-79
2023/01/21 12:52:22;;;;;;;19.77;10.05;;;;;;;;;;4997984;28;20038;-78
2023/01/21 12:55:04;;;;;;;14.25;8.05;;;12.30;1.00;;;;;;4975747;28;20045;-78
2023/01/21 12:57:49;;;;;;;12.93;8.13;;;;;;;;;;4995510;28;20133;-78
2023/01/21 13:00:18;;;;;;;13.85;8.07;;;;;;;;;;4985879;28;20038;-72
2023/01/21 13:02:48;;;;;;;15.55;9.88;;;;;;;;;;4997472;28;20033;-75
2023/01/21 13:05:21;;;;;;;15.10;9.38;;;;;;;;;;4977225;28;20050;-75
2023/01/21 13:07:50;;;;;;;13.75;8.85;;;;;;;;;;4978037;28;20034;-75
2023/01/21 13:10:36;;;;;;;9.63;6.35;;;19.70;1.00;;;;;;4998747;28;20050;-75
2023/01/21 13:13:05;;;;;;;9.38;5.63;;;;;;;;;;4973228;28;20416;-75
2023/01/21 13:15:34;;;;;;;10.55;7.10;;;21.20;1.00;;;;;;5009607;28;20565;-75
2023/01/21 13:18:07;;;;;;;12.23;8.23;;;20.60;1.00;;;;;;5001882;28;20073;-76
2023/01/21 13:20:37;;;;;;;11.88;6.85;;;18.70;99.90;;;;;;4998469;28;20097;-75
2023/01/21 13:23:11;;;;;;;9.18;5.90;;;;;;;;;;4992078;28;20447;-75
2023/01/21 13:25:43;;;;;;;7.90;4.75;;;;;;;;;;4983672;28;20041;-76
2023/01/21 13:28:27;;;;;;;7.45;4.80;;;;;;;;;;4986891;28;20045;-76
2023/01/21 13:30:56;;;;;;;8.05;4.95;;;;;;;;;;4998584;28;20038;-76
2023/01/21 13:33:29;;;;;;;9.00;5.20;;;;;;;;;;4986842;28;20551;-76
2023/01/21 13:36:08;;;;;;;9.57;5.97;;;;;;;;;;4999128;28;20384;-76
2023/01/21 13:39:00;;;;;;;8.88;4.97;;;;;;;;;;5002022;28;20507;-76
2023/01/21 13:41:39;;;;;;;7.97;4.97;;;18.50;99.90;;;;;;4975908;28;20046;-76
2023/01/21 13:44:24;;;;;;;7.22;4.20;;;;;;;;;;4983172;28;20037;-75
2023/01/21 13:47:09;;;;;;;6.88;4.00;;;;;;;;;;5002107;28;20121;-75
2023/01/21 13:50:03;;;;;;;6.22;3.90;;;19.30;99.90;;;;;;4989455;28;20034;-76
2023/01/21 13:52:38;;;;;;;6.45;3.90;;;;;;;;;;5001863;28;20047;-75
2023/01/21 13:55:32;;;;;;;7.70;4.35;;;18.90;99.90;;;;;;4989102;28;20521;-75
2023/01/21 13:58:04;;;;;;;8.18;4.30;;;;;;;;;;4985525;28;20034;-75
2023/01/21 14:00:44;;;;;;;6.80;4.10;;;18.70;99.90;;;;;;4991517;28;20491;-75
2023/01/21 14:03:33;;;;;;;6.95;4.05;;;18.80;99.90;;;;;;4992765;28;20042;-76
2023/01/21 14:06:08;;;;;;;7.75;4.05;;;;;;;;;;5001112;28;20084;-76
2023/01/21 14:08:38;;;;;;;7.20;4.18;;;;;;;;;;5012295;28;20042;-75
2023/01/21 14:11:16;;;;;;;7.45;3.92;;;17.50;99.90;;;;;;4976223;28;20574;-75
2023/01/21 14:13:51;;;;;;;7.30;4.30;;;;;;;;;;4981447;28;20245;-75
2023/01/21 14:16:33;;;;;;;8.02;4.93;;;;;;;;;;4989011;28;20045;-75
2023/01/21 14:19:32;;;;;;;9.10;4.80;;;16.20;99.90;;;;;;5012867;28;20042;-75
2023/01/21 14:22:01;;;;;;;7.55;4.38;;;;;;;;;;5007499;28;20045;-75
2023/01/21 14:24:35;;;;;;;9.02;5.03;;;;;;;;;;5017253;28;20033;-76
2023/01/21 14:27:16;;;;;;;7.53;4.90;;;;;;;;;;5009037;28;20034;-75
2023/01/21 14:29:43;;;;;;;7.97;5.05;;;;;;;;;;4999204;28;20037;-75